createdAt,value
2022-09-15T00:00:10.418Z,16.20
2022-09-15T00:02:37.420Z,16.20
2022-09-15T00:05:04.533Z,16.20
2022-09-15T00:07:31.394Z,16.20
2022-09-15T00:09:58.023Z,16.20
2022-09-15T00:12:25.182Z,16.10
2022-09-15T00:14:51.943Z,16.10
2022-09-15T00:17:18.665Z,16.20
2022-09-15T00:19:45.710Z,16.20
2022-09-15T00:22:13.059Z,16.20
2022-09-15T00:24:41.009Z,16.20
2022-09-15T00:27:08.282Z,16.30
2022-09-15T00:29:36.044Z,16.30
2022-09-15T00:32:02.992Z,16.30
2022-09-15T00:34:29.968Z,16.30
2022-09-15T00:36:56.723Z,16.20
2022-09-15T00:39:23.618Z,16.30
2022-09-15T00:41:50.458Z,16.30
2022-09-15T00:44:17.189Z,16.20
2022-09-15T00:46:58.673Z,16.20
2022-09-15T00:49:34.736Z,16.20
2022-09-15T00:52:09.787Z,16.20
2022-09-15T00:55:01.520Z,16.20
2022-09-15T00:57:36.991Z,16.20
2022-09-15T01:00:09.155Z,16.20
2022-09-15T01:02:37.653Z,16.10
2022-09-15T01:05:08.770Z,16.10
2022-09-15T01:07:43.778Z,16.00
2022-09-15T01:10:17.787Z,16.00
2022-09-15T01:12:44.635Z,16.00
2022-09-15T01:15:12.080Z,16.00
2022-09-15T01:18:00.350Z,16.00
2022-09-15T01:20:51.484Z,15.90
2022-09-15T01:23:36.691Z,15.90
2022-09-15T01:26:09.297Z,15.90
2022-09-15T01:28:57.975Z,15.80
2022-09-15T01:31:30.677Z,15.80
2022-09-15T01:34:11.311Z,15.80
2022-09-15T01:37:01.186Z,15.80
2022-09-15T01:39:34.888Z,15.80
2022-09-15T01:42:08.895Z,15.80
2022-09-15T01:44:54.964Z,15.70
2022-09-15T01:47:23.575Z,15.80
2022-09-15T01:49:54.823Z,15.80
2022-09-15T01:52:24.019Z,15.80
2022-09-15T01:54:55.985Z,15.90
2022-09-15T01:57:23.120Z,15.90
2022-09-15T01:59:51.519Z,15.90
2022-09-15T02:02:44.049Z,15.90
2022-09-15T02:05:20.605Z,15.80
2022-09-15T02:07:57.106Z,15.80
2022-09-15T02:10:58.781Z,15.80
2022-09-15T02:13:34.012Z,15.80
2022-09-15T02:16:01.056Z,15.90
2022-09-15T02:19:08.768Z,15.90
2022-09-15T02:22:08.050Z,15.90
2022-09-15T02:24:44.868Z,15.80
2022-09-15T02:27:21.826Z,15.80
2022-09-15T02:29:50.080Z,15.80
2022-09-15T02:32:21.038Z,15.70
2022-09-15T02:34:51.496Z,15.70
2022-09-15T02:37:21.491Z,15.60
2022-09-15T02:39:53.515Z,15.50
2022-09-15T02:42:29.542Z,15.40
2022-09-15T02:44:56.838Z,15.30
2022-09-15T02:47:24.422Z,15.20
2022-09-15T02:49:51.301Z,15.20
2022-09-15T02:52:18.209Z,15.10
2022-09-15T02:54:45.142Z,15.00
2022-09-15T02:57:13.945Z,14.90
2022-09-15T02:59:59.394Z,14.90
2022-09-15T03:02:26.712Z,14.80
2022-09-15T03:04:53.761Z,14.80
2022-09-15T03:07:21.581Z,14.80
2022-09-15T03:09:48.432Z,14.70
2022-09-15T03:12:15.878Z,14.70
2022-09-15T03:14:42.929Z,14.70
2022-09-15T03:17:09.870Z,14.70
2022-09-15T03:19:36.723Z,14.70
2022-09-15T03:22:03.451Z,14.70
2022-09-15T03:24:30.311Z,14.70
2022-09-15T03:26:57.151Z,14.70
2022-09-15T03:29:23.884Z,14.70
2022-09-15T03:31:50.849Z,14.60
2022-09-15T03:34:17.859Z,14.60
2022-09-15T03:36:44.830Z,14.60
2022-09-15T03:39:15.066Z,14.60
2022-09-15T03:41:42.124Z,14.60
2022-09-15T03:44:09.039Z,14.60
2022-09-15T03:46:35.881Z,14.60
2022-09-15T03:49:03.454Z,14.60
2022-09-15T03:51:30.293Z,14.50
2022-09-15T03:53:57.237Z,14.60
2022-09-15T03:56:31.300Z,14.50
2022-09-15T03:59:02.085Z,14.50
2022-09-15T04:01:30.498Z,14.50
2022-09-15T04:03:58.509Z,14.50
2022-09-15T04:06:26.499Z,14.50
2022-09-15T04:08:54.107Z,14.50
2022-09-15T04:11:22.763Z,14.50
2022-09-15T04:13:50.090Z,14.40
2022-09-15T04:16:19.281Z,14.50
2022-09-15T04:18:46.864Z,14.40
2022-09-15T04:21:16.761Z,14.40
2022-09-15T04:23:44.703Z,14.30
2022-09-15T04:26:22.378Z,14.30
2022-09-15T04:28:49.398Z,14.30
2022-09-15T04:31:17.408Z,14.30
2022-09-15T04:33:45.214Z,14.20
2022-09-15T04:36:19.131Z,14.10
2022-09-15T04:38:45.980Z,14.10
2022-09-15T04:41:13.148Z,14.10
2022-09-15T04:43:40.684Z,14.10
2022-09-15T04:46:07.814Z,14.10
2022-09-15T04:48:35.443Z,14.10
2022-09-15T04:51:04.088Z,14.10
2022-09-15T04:53:31.344Z,14.00
2022-09-15T04:56:16.071Z,14.10
2022-09-15T04:58:45.156Z,14.00
2022-09-15T05:01:20.677Z,14.00
2022-09-15T05:03:47.967Z,13.90
2022-09-15T05:06:20.864Z,14.00
2022-09-15T05:08:52.730Z,14.00
2022-09-15T05:11:20.725Z,14.00
2022-09-15T05:13:48.416Z,14.00
2022-09-15T05:16:18.561Z,14.10
2022-09-15T05:18:47.358Z,14.10
2022-09-15T05:21:16.187Z,14.10
2022-09-15T05:23:43.755Z,14.10
2022-09-15T05:26:16.610Z,14.10
2022-09-15T05:28:43.777Z,14.10
2022-09-15T05:31:21.764Z,14.10
2022-09-15T05:33:50.122Z,14.20
2022-09-15T05:36:18.625Z,14.20
2022-09-15T05:38:45.992Z,14.30
2022-09-15T05:41:16.941Z,14.30
2022-09-15T05:43:48.381Z,14.40
2022-09-15T05:46:17.608Z,14.40
2022-09-15T05:48:45.320Z,14.50
2022-09-15T05:51:12.822Z,14.60
2022-09-15T05:53:40.371Z,14.70
2022-09-15T05:56:11.924Z,14.70
2022-09-15T05:58:41.066Z,14.80
2022-09-15T06:01:11.741Z,14.90
2022-09-15T06:03:38.786Z,15.00
2022-09-15T06:06:06.521Z,15.20
2022-09-15T06:08:35.251Z,15.30
2022-09-15T06:11:08.022Z,15.40
2022-09-15T06:13:35.280Z,15.50
2022-09-15T06:16:07.833Z,15.50
2022-09-15T06:18:37.262Z,15.60
2022-09-15T06:21:25.739Z,15.60
2022-09-15T06:23:55.199Z,15.60
2022-09-15T06:26:22.997Z,15.60
2022-09-15T06:28:55.067Z,15.60
2022-09-15T06:31:23.480Z,15.60
2022-09-15T06:33:52.023Z,15.60
2022-09-15T06:36:21.203Z,15.60
2022-09-15T06:38:48.576Z,15.60
2022-09-15T06:41:16.639Z,15.70
2022-09-15T06:43:44.127Z,15.70
2022-09-15T06:46:12.317Z,15.70
2022-09-15T06:48:40.157Z,15.80
2022-09-15T06:51:10.243Z,15.80
2022-09-15T06:53:38.407Z,15.90
2022-09-15T06:56:10.172Z,16.00
2022-09-15T06:58:39.399Z,16.00
2022-09-15T07:01:10.024Z,16.10
2022-09-15T07:03:38.644Z,16.20
2022-09-15T07:06:06.572Z,16.30
2022-09-15T07:08:34.131Z,16.40
2022-09-15T07:11:01.258Z,16.40
2022-09-15T07:13:28.339Z,16.60
2022-09-15T07:16:00.727Z,16.60
2022-09-15T07:18:28.295Z,16.70
2022-09-15T07:21:00.430Z,16.80
2022-09-15T07:23:27.675Z,16.90
2022-09-15T07:26:09.627Z,16.90
2022-09-15T07:28:37.187Z,16.90
2022-09-15T07:31:06.201Z,16.90
2022-09-15T07:33:34.176Z,17.00
2022-09-15T07:36:02.884Z,16.90
2022-09-15T07:38:30.475Z,16.90
2022-09-15T07:41:13.072Z,16.90
2022-09-15T07:43:40.693Z,16.80
2022-09-15T07:46:07.828Z,16.70
2022-09-15T07:48:34.940Z,16.70
2022-09-15T07:51:02.056Z,16.60
2022-09-15T07:53:30.381Z,16.60
2022-09-15T07:55:57.693Z,16.50
2022-09-15T07:58:25.475Z,16.50
2022-09-15T08:00:52.550Z,16.40
2022-09-15T08:03:19.659Z,16.40
2022-09-15T08:05:46.528Z,16.40
2022-09-15T08:08:13.668Z,16.30
2022-09-15T08:10:41.511Z,16.30
2022-09-15T08:13:08.761Z,16.30
2022-09-15T08:15:37.607Z,16.20
2022-09-15T08:18:06.255Z,16.20
2022-09-15T08:20:33.497Z,16.20
2022-09-15T08:23:00.561Z,16.10
2022-09-15T08:25:27.601Z,16.10
2022-09-15T08:27:56.412Z,16.10
2022-09-15T08:30:23.740Z,16.10
2022-09-15T08:32:50.917Z,16.10
2022-09-15T08:35:19.282Z,16.20
2022-09-15T08:37:47.310Z,16.20
2022-09-15T08:40:25.520Z,16.30
2022-09-15T08:42:55.650Z,16.30
2022-09-15T08:45:22.826Z,16.40
2022-09-15T08:47:56.109Z,16.50
2022-09-15T08:50:43.441Z,16.60
2022-09-15T08:53:18.485Z,16.60
2022-09-15T08:55:49.529Z,16.70
2022-09-15T08:58:21.790Z,16.90
2022-09-15T09:00:52.135Z,17.00
2022-09-15T09:03:25.236Z,17.10
2022-09-15T09:06:26.551Z,17.20
2022-09-15T09:09:15.617Z,17.40
2022-09-15T09:12:02.525Z,17.40
2022-09-15T09:14:50.973Z,17.50
2022-09-15T09:17:48.856Z,17.60
2022-09-15T09:20:32.186Z,17.60
2022-09-15T09:23:03.873Z,17.60
2022-09-15T09:25:31.313Z,17.60
2022-09-15T09:27:59.350Z,17.60
2022-09-15T09:30:29.591Z,17.70
2022-09-15T09:33:10.570Z,17.80
2022-09-15T09:35:51.667Z,17.90
2022-09-15T09:38:35.726Z,18.10
2022-09-15T09:41:08.143Z,18.20
2022-09-15T09:43:35.108Z,18.30
2022-09-15T09:46:02.529Z,18.50
2022-09-15T09:48:30.127Z,18.50
2022-09-15T09:50:57.248Z,18.60
2022-09-15T09:53:31.207Z,18.70
2022-09-15T09:56:23.910Z,18.70
2022-09-15T09:58:51.086Z,18.90
2022-09-15T10:01:20.730Z,19.00
2022-09-15T10:03:47.844Z,19.10
2022-09-15T10:06:18.868Z,19.30
2022-09-15T10:09:03.748Z,19.30
2022-09-15T10:12:01.405Z,19.30
2022-09-15T10:14:35.564Z,19.20
2022-09-15T10:17:10.229Z,19.10
2022-09-15T10:19:49.503Z,19.00
2022-09-15T10:22:33.436Z,18.90
2022-09-15T10:25:02.574Z,18.70
2022-09-15T10:27:35.409Z,18.60
2022-09-15T10:30:14.758Z,18.50
2022-09-15T10:32:43.328Z,18.40
2022-09-15T10:35:18.164Z,18.30
2022-09-15T10:37:54.125Z,18.20
2022-09-15T10:40:51.781Z,18.20
2022-09-15T10:43:39.922Z,18.10
2022-09-15T10:46:15.715Z,18.10
2022-09-15T10:49:04.447Z,18.10
2022-09-15T10:52:11.696Z,18.20
2022-09-15T10:55:03.568Z,18.30
2022-09-15T10:58:05.022Z,18.50
2022-09-15T11:01:07.519Z,18.50
2022-09-15T11:03:46.727Z,18.50
2022-09-15T11:06:24.345Z,18.50
2022-09-15T11:09:27.204Z,18.40
2022-09-15T11:12:25.888Z,18.30
2022-09-15T11:15:03.854Z,18.30
2022-09-15T11:17:55.218Z,18.30
2022-09-15T11:20:46.167Z,18.30
2022-09-15T11:23:37.540Z,18.20
2022-09-15T11:26:23.374Z,18.20
2022-09-15T11:28:57.858Z,18.20
2022-09-15T11:31:38.774Z,18.20
2022-09-15T11:34:26.904Z,18.20
2022-09-15T11:37:13.157Z,18.20
2022-09-15T11:39:46.822Z,18.20
2022-09-15T11:42:36.202Z,18.20
2022-09-15T11:45:04.067Z,18.00
2022-09-15T11:47:36.457Z,18.00
2022-09-15T11:50:29.412Z,18.00
2022-09-15T11:53:16.703Z,18.00
2022-09-15T11:55:49.213Z,18.20
2022-09-15T11:58:21.847Z,18.60
2022-09-15T12:01:10.397Z,19.20
2022-09-15T12:03:50.572Z,19.90
2022-09-15T12:06:45.939Z,20.10
2022-09-15T12:09:16.567Z,20.20
2022-09-15T12:11:47.519Z,20.10
2022-09-15T12:14:27.050Z,20.00
2022-09-15T12:16:54.383Z,19.80
2022-09-15T12:19:36.476Z,19.60
2022-09-15T12:22:12.079Z,19.40
2022-09-15T12:25:04.136Z,19.20
2022-09-15T12:27:31.229Z,19.00
2022-09-15T12:30:01.160Z,18.70
2022-09-15T12:32:33.369Z,18.50
2022-09-15T12:35:25.964Z,18.40
2022-09-15T12:37:55.863Z,18.30
2022-09-15T12:40:39.064Z,18.20
2022-09-15T12:43:15.983Z,18.10
2022-09-15T12:45:53.552Z,18.00
2022-09-15T12:48:30.363Z,18.00
2022-09-15T12:51:05.001Z,18.00
2022-09-15T12:53:46.256Z,17.90
2022-09-15T12:56:29.566Z,18.00
2022-09-15T12:58:56.863Z,17.90
2022-09-15T13:01:26.744Z,17.90
2022-09-15T13:03:54.079Z,17.90
2022-09-15T13:06:30.884Z,17.80
2022-09-15T13:09:05.287Z,17.80
2022-09-15T13:11:38.220Z,17.70
2022-09-15T13:14:08.226Z,17.70
2022-09-15T13:16:46.742Z,17.70
2022-09-15T13:19:36.011Z,17.60
2022-09-15T13:22:11.864Z,17.70
2022-09-15T13:24:50.674Z,17.70
2022-09-15T13:27:21.958Z,17.60
2022-09-15T13:29:54.784Z,17.60
2022-09-15T13:32:40.194Z,17.70
2022-09-15T13:35:44.613Z,17.70
2022-09-15T13:38:42.675Z,17.80
2022-09-15T13:41:21.305Z,17.90
2022-09-15T13:44:35.229Z,17.90
2022-09-15T13:47:33.337Z,17.90
2022-09-15T13:50:15.015Z,17.90
2022-09-15T13:53:00.708Z,17.90
2022-09-15T13:55:29.689Z,18.10
2022-09-15T14:00:58.462Z,18.30
2022-09-15T14:03:40.496Z,18.50
2022-09-15T14:06:14.199Z,18.60
2022-09-15T14:08:43.351Z,18.70
2022-09-15T14:11:14.444Z,18.80
2022-09-15T14:13:47.329Z,18.80
2022-09-15T14:16:31.156Z,18.80
2022-09-15T14:18:59.986Z,18.70
2022-09-15T14:21:32.829Z,18.60
2022-09-15T14:24:25.808Z,18.50
2022-09-15T14:26:52.840Z,18.50
2022-09-15T14:29:22.312Z,18.40
2022-09-15T14:31:49.551Z,18.40
2022-09-15T14:34:16.423Z,18.40
2022-09-15T14:36:43.496Z,18.40
2022-09-15T14:39:18.437Z,18.30
2022-09-15T14:41:46.045Z,18.30
2022-09-15T14:47:28.548Z,18.40
2022-09-15T14:50:13.261Z,18.40
2022-09-15T14:52:47.507Z,18.40
2022-09-15T14:55:25.408Z,18.50
2022-09-15T14:58:03.313Z,18.40
2022-09-15T15:00:37.256Z,18.40
2022-09-15T15:03:25.471Z,18.40
2022-09-15T15:06:03.014Z,18.30
2022-09-15T15:09:17.603Z,18.30
2022-09-15T15:11:45.377Z,18.20
2022-09-15T15:14:13.365Z,18.20
2022-09-15T15:16:52.577Z,18.10
2022-09-15T15:19:33.964Z,18.00
2022-09-15T15:22:21.317Z,17.80
2022-09-15T15:24:51.048Z,17.70
2022-09-15T15:27:34.026Z,17.50
2022-09-15T15:30:30.832Z,17.40
2022-09-15T15:33:26.533Z,17.10
2022-09-15T15:36:05.404Z,16.80
2022-09-15T15:39:00.320Z,16.50
2022-09-15T15:41:35.686Z,16.20
2022-09-15T15:44:07.949Z,16.00
2022-09-15T15:46:51.988Z,15.90
2022-09-15T15:49:21.074Z,15.70
2022-09-15T15:51:48.545Z,15.50
2022-09-15T15:54:15.892Z,15.40
2022-09-15T15:56:42.837Z,15.20
2022-09-15T15:59:12.936Z,15.10
2022-09-15T16:01:40.131Z,15.00
2022-09-15T16:04:07.558Z,14.90
2022-09-15T16:06:35.539Z,14.80
2022-09-15T16:09:03.913Z,14.70
2022-09-15T16:11:30.865Z,14.70
2022-09-15T16:13:57.836Z,14.60
2022-09-15T16:16:26.754Z,14.50
2022-09-15T16:18:53.987Z,14.50
2022-09-15T16:21:36.829Z,14.40
2022-09-15T16:24:05.744Z,14.40
2022-09-15T16:26:35.469Z,14.30
2022-09-15T16:29:03.647Z,14.30
2022-09-15T16:31:31.415Z,14.30
2022-09-15T16:33:58.853Z,14.30
2022-09-15T16:36:26.317Z,14.30
2022-09-15T16:38:53.304Z,14.30
2022-09-15T16:41:25.518Z,14.30
2022-09-15T16:43:59.342Z,14.30
2022-09-15T16:46:26.303Z,14.30
2022-09-15T16:48:53.267Z,14.30
2022-09-15T16:51:28.728Z,14.40
2022-09-15T16:53:56.758Z,14.40
2022-09-15T16:56:23.902Z,14.40
2022-09-15T16:58:58.840Z,14.50
2022-09-15T17:01:26.987Z,14.50
2022-09-15T17:03:54.047Z,14.50
2022-09-15T17:06:22.102Z,14.50
2022-09-15T17:08:49.483Z,14.50
2022-09-15T17:11:18.899Z,14.50
2022-09-15T17:13:46.872Z,14.50
2022-09-15T17:16:19.176Z,14.50
2022-09-15T17:18:46.899Z,14.60
2022-09-15T17:21:16.714Z,14.50
2022-09-15T17:23:45.998Z,14.50
2022-09-15T17:26:15.497Z,14.50
2022-09-15T17:28:42.398Z,14.50
2022-09-15T17:31:16.226Z,14.50
2022-09-15T17:33:44.179Z,14.60
2022-09-15T17:36:11.974Z,14.60
2022-09-15T17:38:41.174Z,14.60
2022-09-15T17:41:14.785Z,14.60
2022-09-15T17:43:42.343Z,14.60
2022-09-15T17:46:09.294Z,14.60
2022-09-15T17:48:38.772Z,14.60
2022-09-15T17:51:14.974Z,14.60
2022-09-15T17:53:42.485Z,14.60
2022-09-15T17:56:09.546Z,14.60
2022-09-15T17:58:36.304Z,14.60
2022-09-15T18:01:03.257Z,14.70
2022-09-15T18:03:34.737Z,14.70
2022-09-15T18:06:05.227Z,14.70
2022-09-15T18:08:36.072Z,14.70
2022-09-15T18:11:04.558Z,14.70
2022-09-15T18:13:31.735Z,14.70
2022-09-15T18:16:04.712Z,14.70
2022-09-15T18:18:31.767Z,14.70
2022-09-15T18:20:58.991Z,14.70
2022-09-15T18:23:28.309Z,14.70
2022-09-15T18:25:55.669Z,14.70
2022-09-15T18:28:22.573Z,14.80
2022-09-15T18:30:50.620Z,14.80
2022-09-15T18:33:20.286Z,14.80
2022-09-15T18:35:49.786Z,14.80
2022-09-15T18:38:17.028Z,14.80
2022-09-15T18:40:53.355Z,14.80
2022-09-15T18:43:21.563Z,14.80
2022-09-15T18:45:49.152Z,14.80
2022-09-15T18:48:16.387Z,14.80
2022-09-15T18:50:44.663Z,14.80
2022-09-15T18:53:12.097Z,14.90
2022-09-15T18:55:41.726Z,14.80
2022-09-15T18:58:09.070Z,14.80
2022-09-15T19:00:36.151Z,14.80
2022-09-15T19:03:06.834Z,14.80
2022-09-15T19:05:34.225Z,14.80
2022-09-15T19:08:02.166Z,14.80
2022-09-15T19:10:29.655Z,14.70
2022-09-15T19:12:56.712Z,14.70
2022-09-15T19:15:24.069Z,14.70
2022-09-15T19:17:51.499Z,14.70
2022-09-15T19:20:18.968Z,14.60
2022-09-15T19:22:46.350Z,14.70
2022-09-15T19:25:13.662Z,14.70
2022-09-15T19:27:41.237Z,14.60
2022-09-15T19:30:12.611Z,14.70
2022-09-15T19:32:40.539Z,14.70
2022-09-15T19:35:08.516Z,14.70
2022-09-15T19:37:37.703Z,14.70
2022-09-15T19:40:08.558Z,14.70
2022-09-15T19:42:36.747Z,14.70
2022-09-15T19:45:04.180Z,14.70
2022-09-15T19:47:31.110Z,14.70
2022-09-15T19:49:58.178Z,14.70
2022-09-15T19:52:25.242Z,14.70
2022-09-15T19:54:52.277Z,14.70
2022-09-15T19:57:19.319Z,14.70
2022-09-15T19:59:46.352Z,14.70
2022-09-15T20:02:13.354Z,14.70
2022-09-15T20:04:40.684Z,14.70
2022-09-15T20:07:07.813Z,14.60
2022-09-15T20:09:35.070Z,14.60
2022-09-15T20:12:03.354Z,14.50
2022-09-15T20:14:31.299Z,14.40
2022-09-15T20:17:01.155Z,14.40
2022-09-15T20:19:29.928Z,14.30
2022-09-15T20:21:56.988Z,14.20
2022-09-15T20:24:24.651Z,14.10
2022-09-15T20:26:52.084Z,14.00
2022-09-15T20:29:20.232Z,13.90
2022-09-15T20:31:47.943Z,13.90
2022-09-15T20:34:15.369Z,13.80
2022-09-15T20:36:43.484Z,13.70
2022-09-15T20:39:13.276Z,13.70
2022-09-15T20:41:41.825Z,13.70
2022-09-15T20:44:11.977Z,13.60
2022-09-15T20:46:39.128Z,13.60
2022-09-15T20:49:06.875Z,13.50
2022-09-15T20:51:34.107Z,13.50
2022-09-15T20:54:03.452Z,13.50
2022-09-15T20:56:32.202Z,13.40
2022-09-15T20:59:00.006Z,13.40
2022-09-15T21:01:34.969Z,13.40
2022-09-15T21:04:02.702Z,13.30
2022-09-15T21:06:29.935Z,13.30
2022-09-15T21:08:57.819Z,13.30
2022-09-15T21:11:26.696Z,13.30
2022-09-15T21:13:54.984Z,13.30
2022-09-15T21:16:24.441Z,13.30
2022-09-15T21:18:52.115Z,13.30
2022-09-15T21:21:22.070Z,13.30
2022-09-15T21:23:51.767Z,13.30
2022-09-15T21:26:23.826Z,13.30
2022-09-15T21:28:51.389Z,13.20
2022-09-15T21:31:27.104Z,13.20
2022-09-15T21:33:55.091Z,13.20
2022-09-15T21:36:25.225Z,13.10
2022-09-15T21:38:54.134Z,13.10
2022-09-15T21:41:23.330Z,13.10
2022-09-15T21:43:54.701Z,13.00
2022-09-15T21:46:27.035Z,13.00
2022-09-15T21:48:56.236Z,13.00
2022-09-15T21:51:25.244Z,13.00
2022-09-15T21:53:54.119Z,13.00
2022-09-15T21:56:22.164Z,13.00
2022-09-15T21:58:49.233Z,13.00
2022-09-15T22:01:21.736Z,13.00
2022-09-15T22:03:51.521Z,13.00
2022-09-15T22:06:19.909Z,13.00
2022-09-15T22:08:46.868Z,13.00
2022-09-15T22:11:14.212Z,13.00
2022-09-15T22:13:43.656Z,13.00
2022-09-15T22:16:14.721Z,13.00
2022-09-15T22:18:42.723Z,12.90
2022-09-15T22:21:24.318Z,13.00
2022-09-15T22:23:53.569Z,12.90
2022-09-15T22:26:22.708Z,13.00
2022-09-15T22:28:49.553Z,12.90
2022-09-15T22:31:17.891Z,13.00
2022-09-15T22:33:45.299Z,13.00
2022-09-15T22:36:14.528Z,13.00
2022-09-15T22:38:41.534Z,13.00
2022-09-15T22:41:12.098Z,13.00
2022-09-15T22:43:40.141Z,13.00
2022-09-15T22:46:07.563Z,13.00
2022-09-15T22:48:37.494Z,13.00
2022-09-15T22:51:07.021Z,13.00
2022-09-15T22:53:34.159Z,13.00
2022-09-15T22:56:22.100Z,13.00
2022-09-15T22:58:49.441Z,13.10
2022-09-15T23:01:21.611Z,13.00
2022-09-15T23:03:56.563Z,13.00
2022-09-15T23:06:24.815Z,13.10
2022-09-15T23:08:53.770Z,13.10
2022-09-15T23:11:20.855Z,13.10
2022-09-15T23:13:47.933Z,13.10
2022-09-15T23:16:14.747Z,13.00
2022-09-15T23:18:41.714Z,13.00
2022-09-15T23:21:10.370Z,13.00
2022-09-15T23:23:39.688Z,13.00
2022-09-15T23:26:08.580Z,13.00
2022-09-15T23:28:35.940Z,13.00
2022-09-15T23:31:03.198Z,13.00
2022-09-15T23:33:31.470Z,13.00
2022-09-15T23:36:03.750Z,13.00
2022-09-15T23:38:31.634Z,13.00
2022-09-15T23:40:58.453Z,13.00
2022-09-15T23:43:25.237Z,13.00
2022-09-15T23:45:53.482Z,13.00
2022-09-15T23:48:20.751Z,13.10
2022-09-15T23:50:48.276Z,13.00
2022-09-15T23:53:15.049Z,13.10
2022-09-15T23:55:41.769Z,13.10
2022-09-15T23:58:08.822Z,13.10
